createdAt,value
2022-11-22T00:01:23.274Z,7.80
2022-11-22T00:03:51.480Z,6.97
2022-11-22T00:06:19.846Z,9.83
2022-11-22T00:08:48.467Z,8.80
2022-11-22T00:11:18.321Z,8.03
2022-11-22T00:13:46.804Z,7.57
2022-11-22T00:16:15.216Z,10.20
2022-11-22T00:18:43.700Z,11.37
2022-11-22T00:21:12.075Z,8.57
2022-11-22T00:23:40.445Z,6.20
2022-11-22T00:26:12.263Z,11.93
2022-11-22T00:28:42.115Z,6.30
2022-11-22T00:31:10.528Z,9.67
2022-11-22T00:33:38.850Z,7.20
2022-11-22T00:36:07.326Z,5.83
2022-11-22T00:38:35.940Z,5.03
2022-11-22T00:41:04.263Z,5.60
2022-11-22T00:43:32.929Z,10.53
2022-11-22T00:46:02.787Z,6.67
2022-11-22T00:48:31.213Z,7.93
2022-11-22T00:50:59.871Z,8.87
2022-11-22T00:53:28.224Z,5.57
2022-11-22T00:55:56.702Z,7.13
2022-11-22T00:58:24.990Z,4.67
2022-11-22T01:00:56.451Z,8.90
2022-11-22T01:03:27.214Z,7.57
2022-11-22T01:05:55.863Z,10.47
2022-11-22T01:08:24.684Z,10.37
2022-11-22T01:10:58.301Z,10.20
2022-11-22T01:13:27.880Z,5.70
2022-11-22T01:16:01.027Z,8.80
2022-11-22T01:18:31.085Z,8.70
2022-11-22T01:20:59.566Z,5.67
2022-11-22T01:23:28.357Z,5.87
2022-11-22T01:25:56.754Z,8.53
2022-11-22T01:28:25.544Z,10.07
2022-11-22T01:30:54.843Z,4.10
2022-11-22T01:33:23.351Z,3.90
2022-11-22T01:35:54.256Z,3.70
2022-11-22T01:38:22.587Z,8.50
2022-11-22T01:40:51.063Z,8.20
2022-11-22T01:43:21.492Z,3.67
2022-11-22T01:45:53.835Z,11.83
2022-11-22T01:48:33.442Z,4.27
2022-11-22T01:51:08.252Z,11.43
2022-11-22T01:53:39.951Z,7.80
2022-11-22T01:56:14.005Z,8.80
2022-11-22T01:58:45.272Z,3.63
2022-11-22T02:01:13.684Z,5.53
2022-11-22T02:03:46.329Z,7.80
2022-11-22T02:06:16.724Z,9.37
2022-11-22T02:08:55.024Z,5.33
2022-11-22T02:11:29.598Z,4.17
2022-11-22T02:14:01.189Z,5.40
2022-11-22T02:16:29.754Z,8.03
2022-11-22T02:18:58.042Z,7.03
2022-11-22T02:21:28.439Z,3.40
2022-11-22T02:24:05.023Z,7.47
2022-11-22T02:26:34.772Z,8.07
2022-11-22T02:29:07.699Z,9.93
2022-11-22T02:31:43.464Z,8.23
2022-11-22T02:34:12.782Z,5.63
2022-11-22T02:36:46.600Z,5.50
2022-11-22T02:39:19.169Z,8.90
2022-11-22T02:41:50.103Z,12.43
2022-11-22T02:44:20.349Z,8.33
2022-11-22T02:46:51.166Z,3.37
2022-11-22T02:49:20.468Z,6.77
2022-11-22T02:51:49.039Z,3.20
2022-11-22T02:54:17.890Z,5.70
2022-11-22T02:56:46.366Z,10.83
2022-11-22T02:59:16.011Z,2.50
2022-11-22T03:01:46.074Z,5.53
2022-11-22T03:04:24.872Z,6.70
2022-11-22T03:06:56.259Z,5.17
2022-11-22T03:09:25.316Z,6.87
2022-11-22T03:11:54.858Z,1.80
2022-11-22T03:14:24.671Z,3.73
2022-11-22T03:16:53.129Z,4.07
2022-11-22T03:19:21.499Z,9.33
2022-11-22T03:21:50.857Z,4.03
2022-11-22T03:24:20.269Z,3.17
2022-11-22T03:26:50.521Z,5.20
2022-11-22T03:29:19.388Z,7.03
2022-11-22T03:31:49.042Z,10.73
2022-11-22T03:34:17.980Z,2.93
2022-11-22T03:36:46.483Z,5.40
2022-11-22T03:39:14.851Z,11.43
2022-11-22T03:41:43.231Z,6.20
2022-11-22T03:44:11.578Z,6.90
2022-11-22T03:46:40.088Z,3.93
2022-11-22T03:49:09.704Z,5.50
2022-11-22T03:51:38.188Z,5.23
2022-11-22T03:54:06.760Z,8.90
2022-11-22T03:56:35.076Z,6.40
2022-11-22T03:59:03.336Z,7.10
2022-11-22T04:01:31.749Z,2.40
2022-11-22T04:04:00.293Z,4.83
2022-11-22T04:06:30.159Z,5.80
2022-11-22T04:08:58.873Z,8.60
2022-11-22T04:11:27.224Z,6.50
2022-11-22T04:14:13.261Z,9.70
2022-11-22T04:16:41.507Z,5.27
2022-11-22T04:19:09.949Z,5.33
2022-11-22T04:21:38.864Z,3.37
2022-11-22T04:24:26.769Z,3.03
2022-11-22T04:26:55.714Z,5.67
2022-11-22T04:29:24.753Z,2.60
2022-11-22T04:32:10.973Z,3.60
2022-11-22T04:34:39.420Z,4.90
2022-11-22T04:37:09.442Z,3.87
2022-11-22T04:39:37.826Z,3.20
2022-11-22T04:42:24.228Z,5.07
2022-11-22T04:44:52.607Z,10.37
2022-11-22T04:47:38.687Z,6.63
2022-11-22T04:50:30.553Z,4.80
2022-11-22T04:52:59.311Z,4.50
2022-11-22T04:55:27.697Z,6.47
2022-11-22T04:57:59.611Z,4.53
2022-11-22T05:00:30.688Z,3.50
2022-11-22T05:02:59.708Z,11.43
2022-11-22T05:05:28.896Z,5.90
2022-11-22T05:08:00.109Z,7.80
2022-11-22T05:10:28.678Z,6.23
2022-11-22T05:12:57.290Z,11.37
2022-11-22T05:15:25.688Z,9.07
2022-11-22T05:17:53.977Z,8.83
2022-11-22T05:20:22.407Z,4.37
2022-11-22T05:23:08.166Z,3.33
2022-11-22T05:25:38.101Z,5.30
2022-11-22T05:28:06.723Z,7.87
2022-11-22T05:30:35.107Z,5.27
2022-11-22T05:33:03.866Z,4.67
2022-11-22T05:35:32.538Z,4.20
2022-11-22T05:38:01.163Z,3.30
2022-11-22T05:40:29.512Z,5.83
2022-11-22T05:43:00.391Z,2.83
2022-11-22T05:45:28.783Z,5.97
2022-11-22T05:47:57.501Z,3.73
2022-11-22T05:50:26.256Z,2.50
2022-11-22T05:53:01.116Z,9.20
2022-11-22T05:55:29.504Z,3.40
2022-11-22T05:58:01.176Z,7.60
2022-11-22T06:00:30.284Z,2.33
2022-11-22T06:03:02.547Z,7.90
2022-11-22T06:05:31.470Z,5.60
2022-11-22T06:08:01.495Z,5.57
2022-11-22T06:10:29.871Z,4.70
2022-11-22T06:12:59.641Z,3.63
2022-11-22T06:15:27.965Z,4.50
2022-11-22T06:17:56.442Z,3.00
2022-11-22T06:20:24.697Z,3.70
2022-11-22T06:22:53.172Z,8.03
2022-11-22T06:25:21.839Z,5.70
2022-11-22T06:27:50.075Z,4.63
2022-11-22T06:30:20.163Z,6.30
2022-11-22T06:32:48.536Z,6.77
2022-11-22T06:35:17.040Z,8.27
2022-11-22T06:37:45.550Z,5.43
2022-11-22T06:40:15.618Z,4.70
2022-11-22T06:42:44.218Z,7.40
2022-11-22T06:45:13.111Z,6.50
2022-11-22T06:47:42.824Z,4.40
2022-11-22T06:50:11.482Z,8.23
2022-11-22T06:52:39.844Z,9.73
2022-11-22T06:55:34.599Z,18.63
2022-11-22T06:57:57.376Z,4.97
2022-11-22T07:00:25.658Z,5.73
2022-11-22T07:02:55.491Z,10.37
2022-11-22T07:05:26.046Z,7.50
2022-11-22T07:07:58.961Z,6.13
2022-11-22T07:10:31.275Z,5.20
2022-11-22T07:12:59.613Z,10.63
2022-11-22T07:15:27.910Z,5.50
2022-11-22T07:17:57.720Z,4.40
2022-11-22T07:20:26.248Z,5.27
2022-11-22T07:22:54.562Z,5.80
2022-11-22T07:25:23.402Z,11.93
2022-11-22T07:27:53.680Z,8.83
2022-11-22T07:30:22.204Z,4.23
2022-11-22T07:32:50.668Z,7.33
2022-11-22T07:35:20.483Z,4.90
2022-11-22T07:37:48.860Z,7.60
2022-11-22T07:40:18.081Z,6.87
2022-11-22T07:42:46.381Z,8.90
2022-11-22T07:45:15.487Z,11.73
2022-11-22T07:47:43.957Z,4.83
2022-11-22T07:50:12.898Z,4.70
2022-11-22T07:52:42.584Z,5.50
2022-11-22T07:55:14.326Z,7.13
2022-11-22T07:57:43.340Z,8.93
2022-11-22T08:00:14.556Z,5.57
2022-11-22T08:02:42.877Z,3.63
2022-11-22T08:05:11.707Z,11.50
2022-11-22T08:07:40.164Z,6.43
2022-11-22T08:10:11.329Z,8.57
2022-11-22T08:12:39.733Z,10.83
2022-11-22T08:15:09.741Z,6.97
2022-11-22T08:17:38.533Z,8.43
2022-11-22T08:20:10.112Z,8.00
2022-11-22T08:22:40.844Z,15.20
2022-11-22T08:25:13.514Z,6.60
2022-11-22T08:27:42.224Z,9.37
2022-11-22T08:30:11.925Z,5.63
2022-11-22T08:32:40.354Z,7.70
2022-11-22T08:35:09.883Z,6.47
2022-11-22T08:37:38.133Z,6.67
2022-11-22T08:40:08.593Z,7.37
2022-11-22T08:42:38.225Z,7.13
2022-11-22T08:45:08.105Z,7.00
2022-11-22T08:47:36.635Z,10.60
2022-11-22T08:50:06.157Z,5.23
2022-11-22T08:52:36.107Z,6.30
2022-11-22T08:55:04.497Z,8.90
2022-11-22T08:57:32.916Z,10.20
2022-11-22T09:00:02.793Z,9.73
2022-11-22T09:02:31.139Z,10.47
2022-11-22T09:04:59.748Z,8.17
2022-11-22T09:10:18.899Z,6.47
2022-11-22T09:12:47.900Z,7.10
2022-11-22T09:15:18.019Z,7.50
2022-11-22T09:17:46.642Z,8.23
2022-11-22T09:20:17.855Z,5.73
2022-11-22T09:22:46.213Z,5.90
2022-11-22T09:25:14.556Z,7.70
2022-11-22T09:27:43.109Z,7.10
2022-11-22T09:30:13.064Z,8.40
2022-11-22T09:32:44.990Z,7.50
2022-11-22T09:35:17.336Z,8.23
2022-11-22T09:37:45.877Z,9.00
2022-11-22T09:40:15.877Z,6.80
2022-11-22T09:43:03.504Z,5.13
2022-11-22T09:46:00.662Z,6.23
2022-11-22T09:49:04.956Z,8.60
2022-11-22T09:51:40.844Z,4.97
2022-11-22T09:54:14.893Z,6.20
2022-11-22T09:56:45.108Z,8.53
2022-11-22T09:59:21.540Z,7.50
2022-11-22T10:01:55.210Z,8.60
2022-11-22T10:04:30.870Z,13.80
2022-11-22T10:07:03.130Z,6.47
2022-11-22T10:09:40.728Z,6.73
2022-11-22T10:12:17.292Z,8.93
2022-11-22T10:14:53.751Z,8.07
2022-11-22T10:17:46.711Z,8.87
2022-11-22T10:20:20.004Z,4.53
2022-11-22T10:22:50.361Z,8.70
2022-11-22T10:25:22.303Z,5.60
2022-11-22T10:28:00.676Z,10.63
2022-11-22T10:30:37.830Z,6.17
2022-11-22T10:33:17.039Z,9.40
2022-11-22T10:36:10.335Z,8.47
2022-11-22T10:39:00.955Z,8.67
2022-11-22T10:41:44.933Z,7.47
2022-11-22T10:44:29.347Z,10.27
2022-11-22T10:47:07.563Z,6.33
2022-11-22T10:49:53.774Z,8.90
2022-11-22T10:52:35.304Z,7.50
2022-11-22T10:55:22.268Z,4.60
2022-11-22T10:58:03.828Z,6.27
2022-11-22T11:00:36.855Z,6.10
2022-11-22T11:03:18.015Z,7.77
2022-11-22T11:06:22.738Z,5.40
2022-11-22T11:11:38.351Z,9.70
2022-11-22T11:14:26.749Z,4.67
2022-11-22T11:16:55.825Z,11.70
2022-11-22T11:19:27.983Z,8.00
2022-11-22T11:22:03.417Z,6.40
2022-11-22T11:24:33.369Z,8.00
2022-11-22T11:27:02.449Z,14.83
2022-11-22T11:29:41.693Z,6.40
2022-11-22T11:32:13.783Z,6.83
2022-11-22T11:34:50.274Z,9.10
2022-11-22T11:37:26.493Z,9.30
2022-11-22T11:39:56.178Z,10.03
2022-11-22T11:42:30.997Z,6.47
2022-11-22T11:45:29.112Z,7.47
2022-11-22T11:47:57.811Z,5.33
2022-11-22T11:50:30.009Z,4.73
2022-11-22T11:53:06.207Z,4.60
2022-11-22T11:55:38.336Z,6.53
2022-11-22T11:58:20.803Z,3.33
2022-11-22T12:00:49.163Z,3.57
2022-11-22T12:03:20.766Z,3.50
2022-11-22T12:05:49.292Z,3.63
2022-11-22T12:08:32.496Z,3.63
2022-11-22T12:11:08.989Z,2.50
2022-11-22T12:14:12.344Z,3.93
2022-11-22T12:16:37.103Z,4.50
2022-11-22T12:22:42.601Z,3.30
2022-11-22T12:25:38.575Z,3.00
2022-11-22T12:28:19.884Z,2.83
2022-11-22T12:30:54.750Z,3.47
2022-11-22T12:33:31.168Z,3.30
2022-11-22T12:36:00.119Z,2.43
2022-11-22T12:38:34.194Z,2.90
2022-11-22T12:41:07.190Z,9.27
2022-11-22T12:43:45.234Z,2.40
2022-11-22T12:46:26.047Z,5.60
2022-11-22T12:48:23.770Z,2.90
2022-11-22T12:49:18.395Z,3.93
2022-11-22T12:51:51.912Z,8.43
2022-11-22T12:54:25.714Z,2.70
2022-11-22T12:56:57.679Z,2.30
2022-11-22T12:59:36.157Z,1.50
2022-11-22T13:02:17.919Z,1.53
2022-11-22T13:04:54.598Z,2.80
2022-11-22T13:07:34.279Z,4.63
2022-11-22T13:10:08.416Z,3.27
2022-11-22T13:12:41.168Z,2.40
2022-11-22T13:15:17.910Z,2.57
2022-11-22T13:17:46.883Z,1.70
2022-11-22T13:20:19.689Z,1.20
2022-11-22T13:23:04.050Z,3.87
2022-11-22T13:25:47.410Z,6.40
2022-11-22T13:28:20.007Z,1.27
2022-11-22T13:31:18.776Z,2.80
2022-11-22T13:33:57.780Z,1.40
2022-11-22T13:36:39.262Z,3.30
2022-11-22T13:39:14.609Z,1.53
2022-11-22T13:41:53.194Z,2.03
2022-11-22T13:44:39.290Z,2.10
2022-11-22T13:47:53.939Z,1.73
2022-11-22T13:51:00.154Z,2.47
2022-11-22T13:53:32.786Z,1.83
2022-11-22T13:56:49.060Z,1.67
2022-11-22T13:59:19.535Z,2.30
2022-11-22T14:02:22.306Z,2.20
2022-11-22T14:04:56.729Z,1.97
2022-11-22T14:07:39.498Z,2.23
2022-11-22T14:10:29.377Z,1.70
2022-11-22T14:13:31.728Z,3.03
2022-11-22T14:16:16.252Z,2.07
2022-11-22T14:18:59.656Z,1.80
2022-11-22T14:21:50.755Z,1.90
2022-11-22T14:24:37.230Z,1.33
2022-11-22T14:27:23.590Z,1.60
2022-11-22T14:30:14.237Z,1.73
2022-11-22T14:33:04.285Z,2.20
2022-11-22T14:35:35.838Z,2.47
2022-11-22T14:38:32.092Z,2.37
2022-11-22T14:41:43.878Z,2.33
2022-11-22T14:44:18.304Z,6.43
2022-11-22T14:46:54.455Z,4.70
2022-11-22T14:49:39.876Z,4.43
2022-11-22T14:52:20.875Z,1.80
2022-11-22T14:54:55.657Z,2.27
2022-11-22T14:57:29.320Z,2.50
2022-11-22T15:00:18.041Z,3.03
2022-11-22T15:03:42.743Z,2.40
2022-11-22T15:09:16.808Z,2.37
2022-11-22T15:10:04.138Z,2.50
2022-11-22T15:12:50.540Z,2.33
2022-11-22T15:57:32.102Z,3.00
2022-11-22T16:00:00.920Z,3.53
2022-11-22T16:02:32.272Z,7.13
2022-11-22T16:06:08.217Z,4.50
2022-11-22T16:07:53.855Z,3.33
2022-11-22T16:10:24.949Z,5.13
2022-11-22T16:12:55.156Z,5.57
2022-11-22T16:15:29.222Z,5.67
2022-11-22T16:18:09.847Z,5.90
2022-11-22T16:20:40.127Z,5.00
2022-11-22T16:23:19.898Z,5.27
2022-11-22T16:25:50.906Z,5.67
2022-11-22T16:28:36.485Z,5.20
2022-11-22T16:31:17.445Z,5.20
2022-11-22T16:33:46.389Z,4.97
2022-11-22T16:36:17.492Z,4.37
2022-11-22T16:38:46.882Z,3.80
2022-11-22T16:41:23.674Z,3.87
2022-11-22T16:43:56.019Z,5.93
2022-11-22T16:46:24.809Z,4.03
2022-11-22T16:48:53.356Z,4.87
2022-11-22T16:51:24.920Z,7.93
2022-11-22T16:53:54.236Z,4.53
2022-11-22T16:56:29.596Z,4.20
2022-11-22T16:58:59.823Z,5.37
2022-11-22T17:01:34.248Z,5.90
2022-11-22T17:04:03.489Z,5.40
2022-11-22T17:06:33.157Z,5.73
2022-11-22T17:09:02.120Z,4.60
2022-11-22T17:11:33.002Z,5.30
2022-11-22T17:14:02.887Z,4.50
2022-11-22T17:16:32.387Z,6.33
2022-11-22T17:19:00.630Z,9.93
2022-11-22T17:21:37.318Z,5.93
2022-11-22T17:24:21.391Z,7.73
2022-11-22T17:26:49.660Z,11.30
2022-11-22T17:29:43.317Z,6.17
2022-11-22T17:32:08.180Z,7.67
2022-11-22T17:34:36.464Z,10.40
2022-11-22T17:37:04.760Z,11.37
2022-11-22T17:39:33.286Z,8.00
2022-11-22T17:42:01.999Z,8.70
2022-11-22T17:44:31.686Z,8.10
2022-11-22T17:47:00.130Z,6.40
2022-11-22T17:49:28.713Z,7.93
2022-11-22T17:51:57.434Z,4.20
2022-11-22T17:54:25.766Z,5.97
2022-11-22T17:56:54.126Z,5.50
2022-11-22T17:59:22.386Z,5.23
2022-11-22T18:01:52.645Z,7.03
2022-11-22T18:04:20.997Z,5.70
2022-11-22T18:06:49.509Z,10.40
2022-11-22T18:09:17.781Z,6.63
2022-11-22T18:11:45.994Z,6.93
2022-11-22T18:14:14.920Z,8.67
2022-11-22T18:16:43.401Z,4.60
2022-11-22T18:19:13.065Z,5.03
2022-11-22T18:21:41.379Z,5.13
2022-11-22T18:24:10.110Z,4.50
2022-11-22T18:26:40.015Z,4.27
2022-11-22T18:31:58.991Z,2.87
2022-11-22T18:34:29.172Z,3.80
2022-11-22T18:37:03.021Z,7.07
2022-11-22T18:39:34.771Z,7.37
2022-11-22T18:42:03.920Z,7.33
2022-11-22T18:44:32.304Z,8.70
2022-11-22T18:47:00.879Z,6.90
2022-11-22T18:49:31.166Z,3.47
2022-11-22T18:51:59.975Z,5.40
2022-11-22T18:54:28.491Z,5.10
2022-11-22T18:56:57.139Z,6.80
2022-11-22T18:59:25.839Z,4.83
2022-11-22T19:01:54.257Z,4.93
2022-11-22T19:04:22.747Z,5.00
2022-11-22T19:06:52.455Z,9.60
2022-11-22T19:09:20.751Z,5.50
2022-11-22T19:11:49.083Z,4.03
2022-11-22T19:14:17.554Z,7.87
2022-11-22T19:16:46.155Z,7.00
2022-11-22T19:19:15.375Z,7.40
2022-11-22T19:21:43.876Z,11.90
2022-11-22T19:24:14.537Z,5.93
2022-11-22T19:26:43.031Z,4.80
2022-11-22T19:29:11.548Z,7.83
2022-11-22T19:31:40.135Z,7.20
2022-11-22T19:34:09.636Z,7.43
2022-11-22T19:36:40.645Z,7.90
2022-11-22T19:39:15.047Z,15.70
2022-11-22T19:41:45.191Z,13.13
2022-11-22T19:44:13.728Z,9.53
2022-11-22T19:46:43.814Z,8.13
2022-11-22T19:49:12.522Z,8.37
2022-11-22T19:51:40.930Z,11.10
2022-11-22T19:54:09.879Z,11.47
2022-11-22T19:56:39.941Z,11.03
2022-11-22T19:59:12.881Z,6.97
2022-11-22T20:01:41.261Z,6.80
2022-11-22T20:04:13.411Z,9.60
2022-11-22T20:06:45.904Z,8.70
2022-11-22T20:09:17.159Z,11.80
2022-11-22T20:11:46.975Z,8.07
2022-11-22T20:14:15.341Z,9.20
2022-11-22T20:16:43.815Z,7.23
2022-11-22T20:19:12.786Z,17.33
2022-11-22T20:21:41.596Z,8.97
2022-11-22T20:24:10.754Z,8.60
2022-11-22T20:26:39.272Z,8.77
2022-11-22T20:29:13.714Z,5.93
2022-11-22T20:31:42.162Z,5.80
2022-11-22T20:34:11.065Z,7.30
2022-11-22T20:36:39.485Z,5.73
2022-11-22T20:39:10.705Z,6.60
2022-11-22T20:41:40.656Z,8.00
2022-11-22T20:44:14.180Z,9.30
2022-11-22T20:46:44.472Z,11.50
2022-11-22T20:49:12.990Z,13.20
2022-11-22T20:51:42.732Z,10.50
2022-11-22T20:54:11.899Z,8.27
2022-11-22T20:56:40.205Z,16.30
2022-11-22T20:59:10.170Z,9.30
2022-11-22T21:01:38.724Z,10.53
2022-11-22T21:04:07.511Z,21.17
2022-11-22T21:06:35.885Z,9.27
2022-11-22T21:09:04.515Z,11.43
2022-11-22T21:11:32.907Z,7.77
2022-11-22T21:14:01.368Z,8.20
2022-11-22T21:16:31.920Z,7.20
2022-11-22T21:19:02.874Z,6.83
2022-11-22T21:21:32.698Z,9.67
2022-11-22T21:24:03.386Z,12.90
2022-11-22T21:26:32.233Z,9.83
2022-11-22T21:29:03.222Z,10.17
2022-11-22T21:31:33.014Z,8.80
2022-11-22T21:34:01.871Z,10.17
2022-11-22T21:36:30.275Z,12.50
2022-11-22T21:38:58.583Z,11.93
2022-11-22T21:41:42.297Z,14.20
2022-11-22T21:44:11.746Z,9.17
2022-11-22T21:46:41.628Z,13.80
2022-11-22T21:49:10.303Z,16.80
2022-11-22T21:51:38.966Z,9.07
2022-11-22T21:54:08.039Z,10.37
2022-11-22T21:56:36.661Z,11.37
2022-11-22T21:59:05.006Z,12.50
2022-11-22T22:01:33.959Z,12.73
2022-11-22T22:04:03.820Z,10.77
2022-11-22T22:06:32.368Z,15.63
2022-11-22T22:09:01.128Z,14.43
2022-11-22T22:11:29.358Z,11.87
2022-11-22T22:13:59.050Z,17.63
2022-11-22T22:16:27.544Z,12.13
2022-11-22T22:18:55.823Z,14.20
2022-11-22T22:21:25.732Z,18.30
2022-11-22T22:23:54.473Z,14.70
2022-11-22T22:26:22.745Z,12.77
2022-11-22T22:28:51.166Z,12.63
2022-11-22T22:31:22.778Z,11.87
2022-11-22T22:33:54.134Z,15.93
2022-11-22T22:36:23.026Z,14.40
2022-11-22T22:38:52.968Z,12.10
2022-11-22T22:41:21.408Z,11.50
2022-11-22T22:43:50.451Z,14.47
2022-11-22T22:46:21.499Z,17.97
2022-11-22T22:48:51.414Z,17.00
2022-11-22T22:51:21.840Z,11.37
2022-11-22T22:53:51.965Z,15.07
2022-11-22T22:56:22.654Z,11.07
2022-11-22T22:58:55.776Z,15.10
2022-11-22T23:01:26.987Z,17.37
2022-11-22T23:03:58.341Z,18.10
2022-11-22T23:06:29.284Z,14.37
2022-11-22T23:08:59.659Z,11.57
2022-11-22T23:11:44.909Z,14.10
2022-11-22T23:14:14.691Z,12.00
2022-11-22T23:16:43.250Z,19.50
2022-11-22T23:19:12.173Z,17.20
2022-11-22T23:21:40.796Z,17.93
2022-11-22T23:24:11.291Z,14.87
2022-11-22T23:26:40.139Z,16.80
2022-11-22T23:29:08.586Z,12.10
2022-11-22T23:31:37.319Z,16.70
2022-11-22T23:34:05.610Z,16.57
2022-11-22T23:36:40.232Z,14.20
2022-11-22T23:39:10.470Z,16.10
2022-11-22T23:41:38.778Z,13.83
2022-11-22T23:44:07.447Z,15.53
2022-11-22T23:46:35.724Z,14.40
2022-11-22T23:49:05.860Z,13.83
2022-11-22T23:51:36.156Z,17.53
2022-11-22T23:54:06.872Z,13.40
2022-11-22T23:56:37.350Z,20.03
2022-11-22T23:59:06.432Z,14.40
